createdAt,value
2022-11-01T00:02:20.644Z,34.94648829431438
2022-11-01T00:09:03.873Z,37.812709030100336
2022-11-01T00:15:35.875Z,35.66220735785953
2022-11-01T00:26:35.917Z,41.54515050167224
2022-11-01T00:33:09.083Z,40.19397993311037
2022-11-01T00:45:55.654Z,35.35117056856188
2022-11-01T01:01:54.426Z,33.759197324414714
2022-11-01T01:09:58.385Z,37.05016722408027
2022-11-01T01:16:27.276Z,36.32775919732441
2022-11-01T01:23:19.009Z,37.247491638795985
2022-11-01T01:29:47.796Z,37.72909698996656
2022-11-01T01:36:19.162Z,32.94648829431438
2022-11-01T01:42:49.180Z,37.02341137123746
2022-11-01T01:50:29.254Z,35.44481605351171
2022-11-01T01:58:13.506Z,36.39799331103679
2022-11-01T02:04:41.327Z,33.46153846153846
2022-11-01T02:12:43.957Z,32.063545150501675
2022-11-01T02:19:11.629Z,36.792642140468224
2022-11-01T02:25:52.254Z,32.32775919732441
2022-11-01T02:34:01.464Z,34.51505016722408
2022-11-01T02:43:11.442Z,32.979933110367895
2022-11-01T02:49:39.386Z,33.862876254180605
2022-11-01T03:01:47.939Z,34.87290969899666
2022-11-01T03:23:36.349Z,29.531772575250837
2022-11-01T03:30:04.581Z,30.608695652173914
2022-11-01T03:40:35.625Z,30.759197324414714
2022-11-01T03:57:51.102Z,27.448160535117058
2022-11-01T04:04:21.099Z,30.321070234113712
2022-11-01T04:14:19.597Z,28.040133779264213
2022-11-01T04:24:02.735Z,26.71571906354515
2022-11-01T04:30:32.830Z,24.993311036789297
2022-11-01T04:37:00.910Z,24.94314381270903
2022-11-01T04:43:30.142Z,25.347826086956523
2022-11-01T04:53:51.456Z,23.471571906354516
2022-11-01T05:11:14.905Z,25.287625418060202
2022-11-01T05:18:09.045Z,23.79933110367893
2022-11-01T05:39:31.969Z,23.618729096989966
2022-11-01T05:46:02.523Z,20.25083612040134
2022-11-01T05:53:56.030Z,20.237458193979933
2022-11-01T06:03:22.997Z,21.40468227424749
2022-11-01T06:09:51.336Z,19.785953177257525
2022-11-01T06:16:22.124Z,19.354515050167223
2022-11-01T06:26:42.682Z,16.986622073578594
2022-11-01T06:34:58.936Z,18.983277591973245
2022-11-01T06:47:07.279Z,12.986622073578594
2022-11-01T06:55:34.927Z,11.301003344481606
2022-11-01T07:02:03.071Z,10.919732441471572
2022-11-01T07:08:32.081Z,9.377926421404682
2022-11-01T07:14:59.569Z,8.364548494983278
2022-11-01T07:21:27.464Z,8.217391304347826
2022-11-01T07:28:05.785Z,8.284280936454849
2022-11-01T07:34:33.160Z,5.682274247491639
2022-11-01T07:41:00.566Z,5.1404682274247495
2022-11-01T07:48:31.423Z,3.488294314381271
2022-11-01T08:00:21.592Z,4.147157190635451
2022-11-01T08:06:52.065Z,1.6822742474916388
2022-11-01T08:13:19.826Z,2.94314381270903
2022-11-01T08:28:16.149Z,4.207357859531773
2022-11-01T08:34:43.397Z,3.3779264214046822
2022-11-01T08:41:11.427Z,2.722408026755853
2022-11-01T08:47:40.946Z,1.6120401337792643
2022-11-01T08:57:03.900Z,2.6254180602006687
2022-11-01T09:04:44.540Z,1.254180602006689
2022-11-01T09:17:51.984Z,2.297658862876254
2022-11-01T09:25:25.882Z,1.2006688963210703
2022-11-01T09:31:53.012Z,0.9765886287625418
2022-11-01T09:38:20.031Z,0.6488294314381271
2022-11-01T09:44:47.341Z,1.1772575250836121
2022-11-01T09:51:14.880Z,0.9498327759197325
2022-11-01T09:57:41.681Z,0.9464882943143813
2022-11-01T10:08:13.680Z,1.411371237458194
2022-11-01T10:25:51.206Z,1.4214046822742474
2022-11-01T10:32:18.553Z,1.3043478260869565
2022-11-01T10:39:23.355Z,1.9264214046822743
2022-11-01T10:46:07.021Z,2.939799331103679
2022-11-01T10:52:33.814Z,1.7959866220735785
2022-11-01T10:59:01.618Z,2.3277591973244145
2022-11-01T11:05:32.496Z,1.5384615384615385
2022-11-01T11:12:01.812Z,1.648829431438127
2022-11-01T11:18:29.458Z,1.608695652173913
2022-11-01T11:30:06.982Z,2.0702341137123748
2022-11-01T11:36:35.367Z,1.859531772575251
2022-11-01T11:43:02.950Z,1.7023411371237458
2022-11-01T11:49:30.281Z,1.5819397993311037
2022-11-01T11:55:59.556Z,3.197324414715719
2022-11-01T12:02:27.089Z,1.765886287625418
2022-11-01T12:08:55.293Z,2.0903010033444818
2022-11-01T12:15:22.638Z,2.317725752508361
2022-11-01T12:22:28.330Z,1.6521739130434783
2022-11-01T12:28:58.205Z,2.2474916387959865
2022-11-01T12:38:30.798Z,2.411371237458194
2022-11-01T12:44:58.929Z,2.919732441471572
2022-11-01T12:56:43.904Z,2.31438127090301
2022-11-01T13:03:11.689Z,2.7157190635451505
2022-11-01T13:09:42.525Z,3.016722408026756
2022-11-01T13:16:10.437Z,2.411371237458194
2022-11-01T13:27:54.392Z,2.9464882943143813
2022-11-01T13:34:24.279Z,2.237458193979933
2022-11-01T13:40:52.305Z,2.25752508361204
2022-11-01T13:51:00.479Z,2.290969899665552
2022-11-01T14:00:03.461Z,2.709030100334448
2022-11-01T14:11:34.608Z,2.9130434782608696
2022-11-01T14:19:41.879Z,2.6020066889632107
2022-11-01T14:29:33.220Z,2.3612040133779266
2022-11-01T14:38:18.142Z,2.705685618729097
2022-11-01T14:47:37.962Z,2.5016722408026757
2022-11-01T14:57:22.361Z,3.451505016722408
2022-11-01T15:07:55.319Z,2.367892976588629
2022-11-01T15:15:27.571Z,1.8662207357859533
2022-11-01T15:23:29.206Z,2.5150501672240804
2022-11-01T15:30:30.417Z,3.190635451505017
2022-11-01T15:36:58.235Z,2.5250836120401337
2022-11-01T15:43:28.015Z,2.0702341137123748
2022-11-01T15:49:56.237Z,2.150501672240803
2022-11-01T15:56:25.948Z,3.020066889632107
2022-11-01T16:03:19.843Z,2.137123745819398
2022-11-01T16:20:38.818Z,2.839464882943144
2022-11-01T16:30:49.616Z,2.4581939799331103
2022-11-01T16:43:30.333Z,2.765886287625418
2022-11-01T17:02:35.152Z,2.6020066889632107
2022-11-01T17:10:01.125Z,2.839464882943144
2022-11-01T17:21:06.180Z,2.9732441471571907
2022-11-01T17:38:12.884Z,3.3779264214046822
2022-11-01T17:55:59.912Z,2.9899665551839463
2022-11-01T18:02:28.347Z,2.260869565217391
2022-11-01T18:08:55.931Z,2.94314381270903
2022-11-01T18:15:28.380Z,3.451505016722408
2022-11-01T18:21:55.770Z,2.5418060200668897
2022-11-01T18:28:31.301Z,2.531772575250836
2022-11-01T18:34:58.592Z,2.4983277591973243
2022-11-01T18:41:28.064Z,2.3812709030100336
2022-11-01T18:52:45.013Z,4.066889632107023
2022-11-01T18:59:11.963Z,3.782608695652174
2022-11-01T19:05:39.027Z,3.0468227424749164
2022-11-01T19:12:06.581Z,2.8160535117056855
2022-11-01T19:18:40.648Z,2.6053511705685617
2022-11-01T19:25:16.849Z,2.076923076923077
2022-11-01T19:31:50.070Z,1.765886287625418
2022-11-01T19:42:18.959Z,3.0434782608695654
2022-11-01T19:48:45.611Z,2.739130434782609
2022-11-01T19:55:59.338Z,3.237458193979933
2022-11-01T20:02:26.651Z,2.842809364548495
2022-11-01T20:08:53.708Z,3.1638795986622075
2022-11-01T20:15:21.542Z,1.7926421404682273
2022-11-01T20:21:48.588Z,2.9498327759197323
2022-11-01T20:28:23.766Z,2.240802675585284
2022-11-01T20:37:59.504Z,2.4180602006688963
2022-11-01T20:48:48.461Z,2.849498327759197
2022-11-01T20:55:15.838Z,1.7725752508361203
2022-11-01T21:05:41.673Z,1.7792642140468227
2022-11-01T21:19:06.622Z,1.9531772575250836
2022-11-01T21:27:09.428Z,2.8528428093645486
2022-11-01T21:36:24.122Z,1.585284280936455
2022-11-01T21:44:11.771Z,1.859531772575251
2022-11-01T21:50:40.502Z,1.6120401337792643
2022-11-01T21:58:01.304Z,1.9531772575250836
2022-11-01T22:05:38.680Z,0.9498327759197325
2022-11-01T22:13:19.479Z,2.0334448160535117
2022-11-01T22:21:02.521Z,2.6153846153846154
2022-11-01T22:29:30.280Z,1.9899665551839465
2022-11-01T22:37:14.743Z,2.0066889632107023
2022-11-01T22:46:45.527Z,1.4448160535117056
2022-11-01T23:02:21.947Z,1.585284280936455
2022-11-01T23:10:13.888Z,2.4013377926421406
2022-11-01T23:20:11.448Z,2.4581939799331103
2022-11-01T23:28:13.654Z,1.8528428093645486
2022-11-01T23:38:24.059Z,3.140468227424749
2022-11-01T23:50:39.036Z,2.100334448160535
